Terminal Aerodrome Forecast
Issued by NWS

Home | Current Version | Previous Version | Text Only | Print | Product List | Glossary On
Versions: 1 2 3 4 5 6 7 8 9 10 11 12 13 14 15 16 17 18 19 20 21
000
FTUS43 KOAX 250804 AAA
TAFSNY
TAF AMD
KSNY 250804Z 2508/2606 09005KT P6SM VCTS BKN025CB
      TEMPO 2508/2509 2SM TSRA
     FM251000 30008KT P6SM BKN020
     FM251500 30010KT P6SM SCT030
     FM251800 31013G20KT P6SM SKC
     FM260000 35007KT P6SM BKN200=

USA.gov is the U.S. government's official web portal to all federal, state and local government web resources and services.